Time;durP1;ratioP1;P1;durP2;ratioP2;P2;SDS_P1;SDS_P2;PMS_P1;PMS_P2;Temp;Humidity;BMP_temperature;BMP_pressure;BME280_temperature;BME280_humidity;BME280_pressure;Samples;Min_cycle;Max_cycle;Signal;HPM_P1;HPM_P2
2023/03/01 00:01:54;;;;;;;20.47;16.20;;;;;;;-1.18;91.73;97406.78;5051685;28;20229;-75
2023/03/01 00:04:19;;;;;;;22.77;15.83;;;;;;;-1.24;92.71;97409.09;5052783;28;20730;-74
2023/03/01 00:06:48;;;;;;;20.83;16.17;;;;;;;-1.16;92.22;97406.63;5052789;28;20243;-72
2023/03/01 00:09:14;;;;;;;20.57;15.50;;;;;;;-1.15;91.75;97414.22;5052451;28;20582;-73
2023/03/01 00:11:40;;;;;;;22.37;16.27;;;;;;;-1.23;92.20;97405.56;5052814;28;20205;-73
2023/03/01 00:14:06;;;;;;;21.73;16.33;;;;;;;-1.20;92.69;97406.09;5051450;28;20194;-72
2023/03/01 00:16:42;;;;;;;23.07;17.53;;;;;;;-1.40;93.33;97413.03;5052537;28;20186;-73
2023/03/01 00:19:11;;;;;;;21.50;15.20;;;;;;;-1.22;92.96;97405.41;5052061;28;20694;-73
2023/03/01 00:21:36;;;;;;;21.50;15.93;;;;;;;-1.23;93.11;97408.16;5052468;28;20200;-73
2023/03/01 00:24:02;;;;;;;20.57;16.13;;;;;;;-1.27;93.03;97410.97;5052933;28;20210;-73
2023/03/01 00:26:28;;;;;;;21.80;16.13;;;;;;;-1.20;93.04;97416.38;5052629;28;20194;-73
2023/03/01 00:28:57;;;;;;;19.67;15.47;;;;;;;-1.23;93.19;97406.38;5052689;28;20268;-74
2023/03/01 00:31:25;;;;;;;22.43;16.53;;;;;;;-1.27;93.65;97417.88;5052270;28;20197;-73
2023/03/01 00:33:57;;;;;;;20.07;15.60;;;;;;;-1.25;93.41;97408.28;5051637;28;20229;-73
2023/03/01 00:36:25;;;;;;;22.13;15.80;;;;;;;-1.37;94.44;97414.50;5052738;28;20534;-74
2023/03/01 00:38:51;;;;;;;24.87;16.97;;;;;;;-1.38;94.72;97413.69;5052340;28;20202;-74
2023/03/01 00:41:18;;;;;;;21.57;15.93;;;;;;;-1.30;94.42;97407.88;5050324;28;20213;-74
2023/03/01 00:43:44;;;;;;;22.97;15.43;;;;;;;-1.30;94.32;97397.59;5052433;28;20202;-73
2023/03/01 00:46:16;;;;;;;23.53;17.50;;;;;;;-1.35;94.56;97399.78;5051710;28;20269;-73
2023/03/01 00:48:41;;;;;;;25.20;17.37;;;;;;;-1.43;94.29;97405.59;5052586;28;20220;-73
2023/03/01 00:51:09;;;;;;;21.47;18.00;;;;;;;-1.51;95.41;97402.09;5053323;28;20651;-73
2023/03/01 00:53:35;;;;;;;22.90;17.23;;;;;;;-1.50;95.22;97407.06;5055981;28;20189;-73
2023/03/01 00:56:00;;;;;;;23.47;17.87;;;;;;;-1.49;94.72;97402.75;5056179;28;20252;-73
2023/03/01 00:58:26;;;;;;;23.80;17.43;;;;;;;-1.52;95.13;97397.88;5056317;28;20194;-73
2023/03/01 01:00:52;;;;;;;23.07;16.77;;;;;;;-1.50;95.46;97399.34;5056163;28;20194;-73
2023/03/01 01:03:18;;;;;;;20.27;16.87;;;;;;;-1.53;95.89;97396.25;5056126;28;20213;-73
2023/03/01 01:05:43;;;;;;;21.87;16.03;;;;;;;-1.63;96.42;97400.59;5056022;28;20567;-73
2023/03/01 01:08:08;;;;;;;22.53;16.67;;;;;;;-1.62;95.99;97399.66;5055603;28;20232;-74
2023/03/01 01:10:34;;;;;;;21.10;16.17;;;;;;;-1.59;96.11;97391.66;5055786;28;20193;-74
2023/03/01 01:13:00;;;;;;;20.37;15.27;;;;;;;-1.60;96.18;97387.47;5055825;28;20204;-73
2023/03/01 01:15:25;;;;;;;24.20;16.17;;;;;;;-1.73;97.06;97393.69;5058459;28;20189;-75
2023/03/01 01:17:50;;;;;;;19.50;15.60;;;;;;;-1.72;96.77;97395.31;5055785;28;20197;-73
2023/03/01 01:20:17;;;;;;;24.80;16.17;;;;;;;-1.76;97.40;97391.38;5054971;28;20193;-73
2023/03/01 01:22:43;;;;;;;23.50;15.77;;;;;;;-1.78;97.73;97390.69;5055665;28;20229;-73
2023/03/01 01:25:09;;;;;;;22.60;15.43;;;;;;;-1.86;98.47;97390.59;5042748;28;20685;-76
2023/03/01 01:27:34;;;;;;;22.03;16.60;;;;;;;-2.01;99.91;97391.94;5055340;28;20638;-75
2023/03/01 01:30:00;;;;;;;21.40;19.10;;;;;;;-1.91;99.31;97379.09;5055840;28;20221;-74
2023/03/01 01:32:25;;;;;;;26.60;16.47;;;;;;;-1.91;99.01;97373.94;5053452;28;20598;-74
2023/03/01 01:34:51;;;;;;;23.23;17.03;;;;;;;-1.92;99.14;97372.31;5053615;28;20234;-76
2023/03/01 01:37:16;;;;;;;23.13;17.00;;;;;;;-1.91;99.32;97374.75;5055455;28;20524;-75
2023/03/01 01:39:41;;;;;;;24.80;17.73;;;;;;;-1.92;99.57;97367.19;5053068;28;20217;-74
2023/03/01 01:42:14;;;;;;;24.27;17.23;;;;;;;-1.86;99.36;97372.59;5055320;28;20197;-74
2023/03/01 01:44:40;;;;;;;28.17;18.17;;;;;;;-1.81;98.57;97370.44;5055438;28;20236;-75
2023/03/01 01:47:12;;;;;;;24.60;17.20;;;;;;;-1.79;98.50;97368.56;5054984;28;20259;-74
2023/03/01 01:49:57;;;;;;;29.07;17.40;;;;;;;-1.67;98.33;97366.63;5055645;28;20217;-75
2023/03/01 01:52:25;;;;;;;21.30;15.90;;;;;;;-1.67;98.46;97364.06;5055057;28;20197;-74
2023/03/01 01:55:13;;;;;;;23.27;16.77;;;;;;;-1.53;97.90;97357.72;5055047;28;20681;-72
2023/03/01 01:57:45;;;;;;;25.23;17.63;;;;;;;-1.49;97.42;97357.28;5053852;28;20186;-72
2023/03/01 02:00:14;;;;;;;24.07;16.10;;;;;;;-1.55;96.64;97362.97;5054148;28;20201;-72
2023/03/01 02:02:42;;;;;;;25.97;16.73;;;;;;;-1.59;97.26;97363.41;5054044;28;20202;-74
2023/03/01 02:05:20;;;;;;;19.93;15.70;;;;;;;-1.48;96.69;97353.78;5054847;28;20328;-74
2023/03/01 02:07:47;;;;;;;24.23;15.73;;;;;;;-1.37;96.87;97357.94;5054971;28;20192;-74
2023/03/01 02:10:13;;;;;;;21.47;16.90;;;;;;;-1.35;96.19;97351.75;5054519;28;20206;-74
2023/03/01 02:12:39;;;;;;;24.23;16.93;;;;;;;-1.34;96.07;97343.06;5054882;28;20198;-74
2023/03/01 02:15:05;;;;;;;25.53;17.57;;;;;;;-1.28;95.96;97339.13;5054379;28;20190;-75
2023/03/01 02:17:31;;;;;;;24.80;17.73;;;;;;;-1.33;96.00;97331.81;5054496;28;20200;-74
2023/03/01 02:20:39;;;;;;;21.23;16.17;;;;;;;-1.23;95.66;97334.41;5053853;28;20182;-72
2023/03/01 02:23:05;;;;;;;22.27;17.00;;;;;;;-1.17;94.75;97326.09;5054515;28;20182;-73
2023/03/01 02:25:45;;;;;;;25.77;16.20;;;;;;;-1.31;95.74;97324.78;5054535;28;20229;-73
2023/03/01 02:28:15;;;;;;;21.60;15.90;;;;;;;-1.15;95.47;97315.69;5054682;28;20177;-73
2023/03/01 02:31:41;;;;;;;22.27;16.40;;;;;;;-1.20;94.51;97323.81;5053640;28;20194;-73
2023/03/01 02:33:27;;;;;;;24.33;17.30;;;;;;;-1.23;94.88;97321.53;5052984;28;20205;-73
2023/03/01 02:35:54;;;;;;;22.97;16.00;;;;;;;-1.18;95.78;97321.94;5053002;28;20281;-72
2023/03/01 02:38:21;;;;;;;23.43;16.53;;;;;;;-1.22;95.30;97306.91;5054160;28;20677;-72
2023/03/01 02:40:49;;;;;;;25.17;16.83;;;;;;;-1.27;95.31;97297.84;5051282;28;20328;-73
2023/03/01 02:43:17;;;;;;;27.03;16.17;;;;;;;-1.27;95.96;97304.75;5053824;28;20190;-73
2023/03/01 02:45:53;;;;;;;23.97;17.77;;;;;;;-1.24;95.12;97294.19;5054080;28;20205;-73
2023/03/01 02:48:19;;;;;;;24.83;17.33;;;;;;;-1.19;95.91;97301.50;5054010;28;20198;-73
2023/03/01 02:50:52;;;;;;;24.33;16.70;;;;;;;-1.12;94.99;97305.94;5053947;28;20277;-72
2023/03/01 02:53:32;;;;;;;27.70;17.50;;;;;;;-1.16;95.04;97299.44;5053399;28;20555;-73
2023/03/01 02:55:58;;;;;;;21.80;15.30;;;;;;;-1.20;95.25;97294.72;5053741;28;20584;-74
2023/03/01 02:58:24;;;;;;;23.43;17.43;;;;;;;-1.16;95.17;97291.72;5053977;28;20545;-73
2023/03/01 03:00:50;;;;;;;27.10;17.80;;;;;;;-1.20;95.13;97292.16;5052249;28;20194;-73
2023/03/01 03:03:19;;;;;;;22.93;16.93;;;;;;;-1.20;95.21;97285.25;5053471;28;20544;-73
2023/03/01 03:05:44;;;;;;;20.83;16.77;;;;;;;-1.16;95.09;97290.91;5054019;28;20281;-73
2023/03/01 03:08:11;;;;;;;23.90;17.23;;;;;;;-1.07;94.92;97287.50;5053518;28;20204;-74
2023/03/01 03:10:39;;;;;;;23.80;17.57;;;;;;;-1.09;94.95;97282.50;5051948;28;20194;-75
2023/03/01 03:13:11;;;;;;;26.47;18.20;;;;;;;-1.09;95.08;97277.34;5052064;28;20182;-75
2023/03/01 03:15:38;;;;;;;23.47;17.57;;;;;;;-1.13;94.07;97273.44;5036629;28;20603;-77
2023/03/01 03:18:06;;;;;;;24.53;16.93;;;;;;;-1.05;94.70;97277.88;5053477;28;20178;-73
2023/03/01 03:20:33;;;;;;;20.83;15.77;;;;;;;-0.99;93.83;97278.13;5052649;28;20728;-73
2023/03/01 03:22:58;;;;;;;23.37;17.17;;;;;;;-1.06;93.95;97278.84;5053399;28;20552;-73
2023/03/01 03:25:25;;;;;;;23.63;16.80;;;;;;;-1.24;95.60;97267.66;5053254;28;20218;-73
2023/03/01 03:27:56;;;;;;;24.27;16.50;;;;;;;-1.11;95.03;97273.28;5053528;28;20198;-73
2023/03/01 03:30:23;;;;;;;21.70;16.50;;;;;;;-1.16;96.02;97271.16;5053371;28;20186;-73
2023/03/01 03:32:54;;;;;;;24.13;17.53;;;;;;;-1.07;94.99;97267.75;5052842;28;20263;-73
2023/03/01 03:35:24;;;;;;;23.77;17.33;;;;;;;-1.03;94.80;97270.84;5052399;28;20225;-73
2023/03/01 03:38:03;;;;;;;23.30;17.20;;;;;;;-0.99;94.85;97278.13;5053361;28;20239;-73
2023/03/01 03:40:39;;;;;;;26.00;17.60;;;;;;;-1.02;94.53;97275.84;5051375;28;20190;-73
2023/03/01 03:43:16;;;;;;;25.43;18.17;;;;;;;-1.05;94.73;97278.69;5052904;28;20224;-73
2023/03/01 03:45:44;;;;;;;23.93;17.47;;;;;;;-1.08;95.03;97275.59;5053258;28;20221;-73
2023/03/01 03:48:10;;;;;;;27.43;18.30;;;;;;;-1.04;95.48;97271.78;5053125;28;20190;-73
2023/03/01 03:50:36;;;;;;;24.70;17.67;;;;;;;-1.14;95.30;97266.69;5053007;28;20276;-73
2023/03/01 03:53:04;;;;;;;21.90;16.97;;;;;;;-1.13;96.13;97270.88;5052913;28;20544;-73
2023/03/01 03:55:30;;;;;;;25.07;18.67;;;;;;;-1.02;95.48;97268.13;5052766;28;20200;-73
2023/03/01 03:57:58;;;;;;;23.27;18.13;;;;;;;-0.91;95.18;97264.56;5052848;28;20190;-73
2023/03/01 04:00:23;;;;;;;23.93;17.67;;;;;;;-0.91;94.93;97267.13;5052883;28;20229;-73
2023/03/01 04:02:50;;;;;;;23.70;17.60;;;;;;;-0.89;94.79;97257.47;5051937;28;20209;-73
2023/03/01 04:05:17;;;;;;;23.87;18.03;;;;;;;-0.81;94.13;97254.19;5052431;28;20213;-73
2023/03/01 04:07:44;;;;;;;25.37;18.13;;;;;;;-0.86;94.45;97246.91;5052254;28;20194;-73
2023/03/01 04:10:15;;;;;;;23.07;17.07;;;;;;;-0.99;94.78;97254.16;5053033;28;20186;-73
2023/03/01 04:12:43;;;;;;;24.50;18.47;;;;;;;-0.99;95.43;97251.56;5052498;28;20185;-74
2023/03/01 04:15:12;;;;;;;24.17;17.17;;;;;;;-0.97;95.02;97250.50;5052532;28;20654;-74
2023/03/01 04:17:46;;;;;;;25.07;18.13;;;;;;;-1.06;95.07;97240.25;5052309;28;20194;-73
2023/03/01 04:20:24;;;;;;;24.57;17.03;;;;;;;-1.17;95.87;97238.66;5052438;28;20194;-73
2023/03/01 04:22:52;;;;;;;23.97;16.63;;;;;;;-1.13;96.30;97246.91;5052663;28;20182;-74
2023/03/01 04:25:18;;;;;;;25.73;18.43;;;;;;;-1.15;96.15;97236.78;5052567;28;20274;-74
2023/03/01 04:27:43;;;;;;;27.07;18.07;;;;;;;-1.24;97.13;97231.69;5057312;28;20280;-73
2023/03/01 04:30:09;;;;;;;23.80;18.13;;;;;;;-1.12;96.44;97241.66;5056915;28;20198;-73
2023/03/01 04:32:34;;;;;;;26.40;19.07;;;;;;;-1.19;96.76;97238.00;5055522;28;20292;-73
2023/03/01 04:35:00;;;;;;;26.37;18.40;;;;;;;-1.25;96.95;97236.00;5056425;28;20371;-73
2023/03/01 04:37:26;;;;;;;32.13;19.20;;;;;;;-1.14;96.78;97240.97;5056791;28;20643;-74
2023/03/01 04:39:52;;;;;;;29.67;17.93;;;;;;;-1.06;97.32;97237.69;5054406;28;20288;-74
2023/03/01 04:42:18;;;;;;;24.30;17.53;;;;;;;-1.07;96.70;97241.22;5056646;28;20186;-73
2023/03/01 04:44:44;;;;;;;28.07;18.77;;;;;;;-1.00;95.94;97225.03;5055822;28;20221;-73
2023/03/01 04:47:10;;;;;;;26.87;18.20;;;;;;;-1.02;95.97;97242.41;5056200;28;20590;-73
2023/03/01 04:49:35;;;;;;;28.00;18.03;;;;;;;-0.95;95.25;97238.28;5056425;28;20205;-73
2023/03/01 04:52:04;;;;;;;29.97;18.40;;;;;;;-1.02;95.52;97236.44;5055641;28;20221;-74
2023/03/01 04:54:33;;;;;;;25.30;17.50;;;;;;;-1.02;96.33;97242.41;5056193;28;20256;-74
2023/03/01 04:57:00;;;;;;;25.67;18.03;;;;;;;-1.02;95.91;97231.31;5056114;28;20194;-73
2023/03/01 04:59:26;;;;;;;26.43;18.70;;;;;;;-1.04;96.28;97236.59;5055821;28;20628;-73
2023/03/01 05:01:55;;;;;;;28.87;18.37;;;;;;;-1.08;97.06;97242.16;5055893;28;20288;-74
2023/03/01 05:04:21;;;;;;;26.70;19.53;;;;;;;-1.16;97.14;97236.91;5056197;28;20212;-73
2023/03/01 05:06:46;;;;;;;24.73;17.77;;;;;;;-1.19;97.69;97237.19;5055712;28;20198;-74
2023/03/01 05:09:11;;;;;;;26.93;19.63;;;;;;;-1.15;97.36;97241.91;5055665;28;20210;-74
2023/03/01 05:11:37;;;;;;;28.70;19.77;;;;;;;-1.18;97.64;97241.41;5055944;28;20224;-73
2023/03/01 05:14:04;;;;;;;28.93;20.40;;;;;;;-1.07;97.19;97229.16;5054423;28;20194;-74
2023/03/01 05:16:30;;;;;;;28.17;19.83;;;;;;;-1.10;97.63;97231.19;5067719;28;20559;-73
2023/03/01 05:18:56;;;;;;;31.20;19.17;;;;;;;-1.03;97.00;97230.50;5055230;28;20681;-74
2023/03/01 05:21:22;;;;;;;27.60;20.60;;;;;;;-1.16;97.82;97239.47;5055665;28;20198;-74
2023/03/01 05:23:47;;;;;;;26.27;19.70;;;;;;;-1.18;98.03;97225.97;5055586;28;20323;-74
2023/03/01 05:26:13;;;;;;;27.03;19.73;;;;;;;-1.18;98.51;97231.13;5055346;28;20194;-74
2023/03/01 05:28:39;;;;;;;29.83;20.53;;;;;;;-1.11;98.04;97234.72;5055905;28;20198;-74
2023/03/01 05:31:09;;;;;;;26.33;19.80;;;;;;;-1.01;97.09;97231.16;5054335;28;20684;-73
2023/03/01 05:33:35;;;;;;;27.50;19.50;;;;;;;-1.09;97.78;97243.09;5054423;28;20237;-74
2023/03/01 05:36:01;;;;;;;35.47;19.97;;;;;;;-1.06;97.52;97229.97;5055248;28;20188;-74
2023/03/01 05:38:26;;;;;;;26.23;19.10;;;;;;;-1.05;97.22;97236.72;5048492;28;20643;-73
2023/03/01 05:40:51;;;;;;;28.50;18.73;;;;;;;-0.97;97.31;97235.06;5055059;28;20677;-74
2023/03/01 05:43:17;;;;;;;28.07;19.43;;;;;;;-1.00;96.69;97237.91;5054795;28;20270;-74
2023/03/01 05:45:44;;;;;;;26.37;19.60;;;;;;;-0.86;96.24;97236.63;5055343;28;20571;-74
2023/03/01 05:48:10;;;;;;;26.47;19.07;;;;;;;-1.03;96.56;97243.34;5055424;28;20538;-74
2023/03/01 05:50:39;;;;;;;25.30;18.10;;;;;;;-0.91;96.94;97231.09;5055023;28;20198;-74
2023/03/01 05:53:11;;;;;;;28.23;18.83;;;;;;;-0.96;97.37;97228.97;5054838;28;20186;-74
2023/03/01 05:55:37;;;;;;;29.27;19.43;;;;;;;-0.87;96.39;97227.28;5055266;28;20186;-75
2023/03/01 05:58:07;;;;;;;27.30;19.20;;;;;;;-0.77;96.29;97224.66;5054797;28;20252;-74
2023/03/01 06:00:33;;;;;;;26.43;19.53;;;;;;;-0.80;95.55;97235.25;5053493;28;20186;-74
2023/03/01 06:03:01;;;;;;;28.67;20.37;;;;;;;-1.00;97.20;97222.47;5054319;28;20584;-74
2023/03/01 06:05:27;;;;;;;26.10;18.70;;;;;;;-0.93;97.16;97222.72;5053477;28;20210;-74
2023/03/01 06:07:53;;;;;;;26.93;19.10;;;;;;;-1.02;98.12;97221.00;5054495;28;20564;-73
2023/03/01 06:10:21;;;;;;;27.60;19.70;;;;;;;-1.01;98.34;97213.16;5053991;28;20302;-73
2023/03/01 06:12:46;;;;;;;24.93;19.00;;;;;;;-0.87;97.18;97212.66;5053972;28;20212;-74
2023/03/01 06:15:14;;;;;;;29.27;19.50;;;;;;;-0.91;97.12;97207.94;5054417;28;20276;-74
2023/03/01 06:17:41;;;;;;;25.97;18.93;;;;;;;-0.88;97.21;97208.47;5054251;28;20205;-75
2023/03/01 06:20:18;;;;;;;26.20;19.47;;;;;;;-0.82;97.04;97219.13;5054116;28;20186;-74
2023/03/01 06:22:44;;;;;;;27.97;19.33;;;;;;;-0.79;96.85;97227.38;5054398;28;20192;-74
2023/03/01 06:25:12;;;;;;;25.87;18.60;;;;;;;-0.76;96.89;97218.53;5054398;28;20205;-74
2023/03/01 06:27:38;;;;;;;27.00;19.53;;;;;;;-0.64;95.91;97209.66;5054603;28;20185;-73
2023/03/01 06:30:04;;;;;;;27.33;18.90;;;;;;;-0.77;96.30;97212.59;5053707;28;20206;-73
2023/03/01 06:32:30;;;;;;;33.50;20.43;;;;;;;-0.87;96.50;97217.00;5053578;28;20201;-74
2023/03/01 06:34:55;;;;;;;25.90;19.80;;;;;;;-0.97;97.56;97211.91;5052587;28;20276;-73
2023/03/01 06:37:20;;;;;;;27.27;18.47;;;;;;;-0.77;97.40;97215.16;5052570;28;20196;-73
2023/03/01 06:39:46;;;;;;;30.07;21.83;;;;;;;-1.01;97.65;97217.50;5053120;28;20206;-74
2023/03/01 06:42:11;;;;;;;29.63;21.13;;;;;;;-1.03;98.42;97220.19;5054136;28;20190;-74
2023/03/01 06:44:37;;;;;;;31.10;21.70;;;;;;;-0.94;98.84;97223.66;5054019;28;20210;-75
2023/03/01 06:47:03;;;;;;;27.77;20.83;;;;;;;-0.99;98.81;97223.28;5053844;28;20271;-75
2023/03/01 06:49:29;;;;;;;27.40;20.77;;;;;;;-1.01;99.10;97225.22;5053573;28;20187;-75
2023/03/01 06:51:55;;;;;;;27.80;20.10;;;;;;;-0.95;98.57;97222.84;5054122;28;20270;-74
2023/03/01 06:54:22;;;;;;;29.03;21.07;;;;;;;-0.98;98.59;97227.47;5054148;28;20280;-75
2023/03/01 06:56:48;;;;;;;29.83;21.10;;;;;;;-0.98;98.53;97223.16;5053885;28;20269;-74
2023/03/01 06:59:13;;;;;;;32.23;21.53;;;;;;;-0.85;98.49;97220.25;5054103;28;20213;-75
2023/03/01 07:01:39;;;;;;;28.20;20.77;;;;;;;-0.89;98.02;97222.28;5053513;28;20658;-73
2023/03/01 07:04:04;;;;;;;25.13;19.73;;;;;;;-0.81;97.75;97221.56;5053487;28;20263;-73
2023/03/01 07:06:29;;;;;;;31.67;20.27;;;;;;;-0.71;97.22;97216.34;5053351;28;20194;-75
2023/03/01 07:08:55;;;;;;;27.43;19.23;;;;;;;-0.88;97.70;97213.59;5053504;28;20202;-76
2023/03/01 07:11:20;;;;;;;28.50;19.37;;;;;;;-0.77;97.89;97215.16;5053323;28;20190;-75
2023/03/01 07:13:46;;;;;;;28.67;20.87;;;;;;;-1.04;98.21;97221.16;5053541;28;20202;-75
2023/03/01 07:16:11;;;;;;;33.40;21.17;;;;;;;-1.00;98.28;97219.09;5052919;28;20599;-75
2023/03/01 07:18:36;;;;;;;29.77;20.57;;;;;;;-0.84;97.84;97224.44;5052526;28;20190;-75
2023/03/01 07:21:07;;;;;;;29.73;22.27;;;;;;;-0.81;97.98;97216.41;5053170;28;20614;-75
2023/03/01 07:23:33;;;;;;;29.97;21.57;;;;;;;-0.81;96.89;97213.84;5053365;28;20206;-75
2023/03/01 07:26:00;;;;;;;29.00;21.17;;;;;;;-0.75;97.22;97209.88;5053047;28;20247;-76
2023/03/01 07:28:26;;;;;;;30.70;19.90;;;;;;;-0.74;96.85;97204.59;5053286;28;20209;-74
2023/03/01 07:30:52;;;;;;;29.17;20.20;;;;;;;-0.51;95.75;97197.25;5051927;28;20194;-77
2023/03/01 07:33:17;;;;;;;29.43;19.57;;;;;;;-0.44;94.73;97198.25;5052354;28;20555;-75
2023/03/01 07:35:42;;;;;;;28.33;18.30;;;;;;;-0.51;94.66;97197.25;5051999;28;20205;-74
2023/03/01 07:38:08;;;;;;;26.20;18.77;;;;;;;-0.34;94.65;97193.88;5050396;28;20655;-75
2023/03/01 07:40:33;;;;;;;27.90;19.63;;;;;;;-0.26;93.71;97195.69;5051900;28;20531;-75
2023/03/01 07:43:01;;;;;;;28.43;20.13;;;;;;;-0.23;92.70;97195.41;5051344;28;20189;-74
2023/03/01 07:45:27;;;;;;;26.07;19.87;;;;;;;-0.27;93.06;97194.06;5051771;28;20202;-74
2023/03/01 07:47:52;;;;;;;28.87;20.83;;;;;;;-0.29;93.14;97190.84;5051824;28;20721;-74
2023/03/01 07:50:19;;;;;;;28.10;20.83;;;;;;;-0.29;93.10;97183.94;5051965;28;20217;-74
2023/03/01 07:52:49;;;;;;;29.53;20.57;;;;;;;-0.40;94.01;97181.59;5052319;28;20193;-74
2023/03/01 07:55:15;;;;;;;31.83;21.00;;;;;;;0.18;93.20;97179.25;5051311;28;20565;-73
2023/03/01 07:57:40;;;;;;;27.40;19.43;;;;;;;-0.09;92.18;97179.41;5051213;28;20578;-73
2023/03/01 08:00:07;;;;;;;30.03;20.43;;;;;;;0.13;91.86;97178.91;5051009;28;20261;-74
2023/03/01 08:02:32;;;;;;;30.03;23.03;;;;;;;0.18;90.20;97181.00;5045752;28;20213;-74
2023/03/01 08:04:58;;;;;;;29.73;20.50;;;;;;;0.03;90.76;97183.34;5051535;28;20209;-73
2023/03/01 08:07:23;;;;;;;27.87;21.63;;;;;;;0.07;91.10;97170.97;5053937;28;20194;-75
2023/03/01 08:09:49;;;;;;;26.03;19.03;;;;;;;0.34;89.28;97179.34;5042974;28;20190;-74
2023/03/01 08:12:16;;;;;;;27.67;19.30;;;;;;;0.14;89.07;97177.13;5047150;28;20199;-74
2023/03/01 08:14:41;;;;;;;25.33;19.00;;;;;;;0.07;89.03;97178.69;5048265;28;20194;-74
2023/03/01 08:17:06;;;;;;;26.67;19.27;;;;;;;0.03;90.02;97172.22;5051448;28;20251;-74
2023/03/01 08:19:33;;;;;;;33.80;21.03;;;;;;;0.17;89.47;97177.63;5050913;28;20194;-73
2023/03/01 08:22:01;;;;;;;27.87;20.10;;;;;;;0.18;89.24;97176.66;5051586;28;20643;-73
2023/03/01 08:24:27;;;;;;;26.73;19.37;;;;;;;0.32;88.85;97176.13;5052165;28;20202;-73
2023/03/01 08:26:53;;;;;;;29.10;19.73;;;;;;;0.24;87.93;97177.84;5047594;28;20708;-74
2023/03/01 08:29:18;;;;;;;29.20;18.90;;;;;;;0.22;88.48;97178.00;5030338;28;20597;-74
2023/03/01 08:31:44;;;;;;;27.43;20.37;;;;;;;0.26;88.33;97176.72;5040317;28;20559;-74
2023/03/01 08:34:13;;;;;;;28.37;18.87;;;;;;;0.34;88.96;97170.78;5012836;28;1114442;-73
2023/03/01 08:36:44;;;;;;;30.53;20.43;;;;;;;0.65;87.17;97164.19;5045160;28;20229;-73
2023/03/01 08:39:12;;;;;;;26.63;19.83;;;;;;;0.78;86.07;97167.13;5032429;28;20194;-75
2023/03/01 08:41:38;;;;;;;27.63;20.37;;;;;;;0.98;84.45;97174.63;5032670;28;20333;-74
2023/03/01 08:44:04;;;;;;;28.50;20.47;;;;;;;0.54;85.90;97167.03;5032524;28;20214;-73
2023/03/01 08:46:33;;;;;;;29.80;22.20;;;;;;;0.43;87.46;97177.63;5049589;28;20205;-72
2023/03/01 08:48:59;;;;;;;28.53;21.17;;;;;;;0.70;86.37;97164.53;5051351;28;20669;-72
2023/03/01 08:51:26;;;;;;;27.57;22.03;;;;;;;0.70;85.70;97161.13;5052224;28;20186;-72
2023/03/01 08:53:52;;;;;;;27.70;21.17;;;;;;;0.95;84.09;97162.03;5052039;28;20197;-75
2023/03/01 08:56:18;;;;;;;25.57;19.43;;;;;;;0.83;83.96;97156.38;5051919;28;20202;-73
2023/03/01 08:58:48;;;;;;;26.57;19.40;;;;;;;0.68;83.93;97152.75;5051562;28;20189;-72
2023/03/01 09:01:16;;;;;;;26.07;19.27;;;;;;;0.83;84.45;97154.59;5051522;28;20235;-73
2023/03/01 09:03:42;;;;;;;27.50;19.40;;;;;;;1.07;83.36;97160.75;5051209;28;20213;-73
2023/03/01 09:06:09;;;;;;;27.63;19.60;;;;;;;0.94;82.63;97161.22;5051688;28;20539;-72
2023/03/01 09:08:38;;;;;;;28.33;19.33;;;;;;;1.01;82.43;97159.63;5050845;28;20197;-73
2023/03/01 09:11:06;;;;;;;30.63;19.60;;;;;;;1.08;82.38;97146.91;5052107;28;20190;-73
2023/03/01 09:13:31;;;;;;;27.87;21.03;;;;;;;0.87;82.39;97142.19;5054704;28;20188;-72
2023/03/01 09:15:58;;;;;;;34.57;20.80;;;;;;;1.01;82.97;97140.75;5055805;28;20710;-72
2023/03/01 09:18:23;;;;;;;26.17;20.60;;;;;;;1.05;81.80;97129.97;5053261;28;20190;-74
2023/03/01 09:20:49;;;;;;;27.40;20.77;;;;;;;1.31;80.80;97127.25;5053720;28;20193;-72
2023/03/01 09:23:14;;;;;;;26.90;21.17;;;;;;;1.45;80.70;97121.44;5055151;28;20198;-73
2023/03/01 09:25:39;;;;;;;28.33;21.87;;;;;;;1.28;80.17;97127.59;5054941;28;20193;-72
2023/03/01 09:28:05;;;;;;;29.50;21.10;;;;;;;1.16;80.71;97114.19;5055198;28;20617;-72
2023/03/01 09:30:30;;;;;;;30.37;22.33;;;;;;;1.12;80.07;97125.78;5054388;28;20193;-74
2023/03/01 09:32:58;;;;;;;75.47;69.53;;;;;;;1.37;79.39;97118.06;5054966;28;20296;-73
2023/03/01 09:35:24;;;;;;;28.97;23.37;;;;;;;1.50;79.32;97115.81;5053770;28;20229;-72
2023/03/01 09:37:49;;;;;;;29.27;22.27;;;;;;;1.27;79.20;97120.00;5052536;28;20251;-72
2023/03/01 09:40:26;;;;;;;29.47;24.53;;;;;;;1.55;79.15;97122.09;5055053;28;20200;-72
2023/03/01 09:43:15;;;;;;;28.57;22.80;;;;;;;1.56;77.69;97126.28;5055465;28;20182;-72
2023/03/01 09:45:44;;;;;;;26.50;20.40;;;;;;;1.48;77.96;97118.56;5055076;28;20531;-72
2023/03/01 09:48:16;;;;;;;29.77;20.40;;;;;;;1.62;77.88;97125.63;5054942;28;20547;-73
2023/03/01 09:50:46;;;;;;;26.47;19.07;;;;;;;1.41;78.71;97124.50;5054679;28;20186;-72
2023/03/01 09:53:34;;;;;;;25.10;18.53;;;;;;;1.65;76.33;97112.41;5054740;28;20197;-73
2023/03/01 09:56:00;;;;;;;27.63;19.37;;;;;;;1.42;77.60;97111.44;5054679;28;20190;-73
2023/03/01 09:58:36;;;;;;;25.17;18.00;;;;;;;1.78;76.76;97104.19;5054666;28;20255;-73
2023/03/01 10:01:20;;;;;;;27.17;19.63;;;;;;;2.07;75.71;97109.59;5053086;28;20197;-71
2023/03/01 10:04:18;;;;;;;24.47;18.73;;;;;;;2.04;75.77;97103.94;5054227;28;20218;-72
2023/03/01 10:06:57;;;;;;;25.33;18.83;;;;;;;1.86;75.95;97093.00;5054308;28;20198;-72
2023/03/01 10:09:22;;;;;;;27.73;20.73;;;;;;;1.89;75.44;97092.69;5047986;28;20236;-71
2023/03/01 10:11:56;;;;;;;27.73;20.90;;;;;;;1.90;75.12;97089.91;5054293;28;20651;-73
2023/03/01 10:14:40;;;;;;;28.10;21.07;;;;;;;2.11;75.42;97102.31;5039632;28;20191;-73
2023/03/01 10:17:19;;;;;;;26.00;20.20;;;;;;;2.17;75.18;97087.94;5054208;28;20190;-73
2023/03/01 10:19:46;;;;;;;26.23;19.80;;;;;;;2.15;73.73;97084.69;5053818;28;20194;-73
2023/03/01 10:22:14;;;;;;;28.00;20.20;;;;;;;2.42;73.92;97071.34;5053629;28;20579;-73
2023/03/01 10:24:40;;;;;;;28.77;20.27;;;;;;;2.41;73.74;97077.47;5038810;28;21067;-73
2023/03/01 10:27:14;;;;;;;25.90;20.60;;;;;;;2.31;73.51;97063.94;5054034;28;20272;-73
2023/03/01 10:29:50;;;;;;;24.13;19.83;;;;;;;2.28;72.83;97065.09;5054185;28;20217;-72
2023/03/01 10:32:17;;;;;;;25.33;20.43;;;;;;;2.25;73.07;97059.44;5052322;28;20672;-73
2023/03/01 10:34:42;;;;;;;28.60;21.37;;;;;;;2.47;72.64;97059.50;5054282;28;20253;-72
2023/03/01 10:37:13;;;;;;;27.80;23.10;;;;;;;2.47;73.60;97063.88;5051071;28;20221;-73
2023/03/01 10:40:05;;;;;;;29.30;23.60;;;;;;;2.80;71.77;97061.91;5054432;28;20186;-73
2023/03/01 10:42:33;;;;;;;24.97;20.57;;;;;;;2.48;72.48;97061.13;5053811;28;20186;-72
2023/03/01 10:45:35;;;;;;;23.40;18.23;;;;;;;2.43;72.67;97065.19;5053681;28;20684;-72
2023/03/01 10:48:16;;;;;;;23.17;19.33;;;;;;;2.59;71.88;97059.13;5053421;28;20212;-71
2023/03/01 10:50:46;;;;;;;24.27;17.97;;;;;;;2.39;71.52;97063.94;5041164;28;20674;-71
2023/03/01 10:53:41;;;;;;;30.37;27.13;;;;;;;2.50;71.56;97060.97;5054381;28;20186;-71
2023/03/01 10:56:06;;;;;;;25.13;18.87;;;;;;;2.74;71.39;97050.47;5053685;28;20200;-71
2023/03/01 10:58:34;;;;;;;24.67;19.83;;;;;;;2.95;71.14;97044.69;5054179;28;20190;-71
2023/03/01 11:01:39;;;;;;;27.50;17.90;;;;;;;3.09;69.53;97043.13;5053935;28;20194;-76
2023/03/01 11:04:05;;;;;;;26.47;18.57;;;;;;;3.15;69.07;97043.25;5050731;28;20213;-72
2023/03/01 11:06:30;;;;;;;24.23;18.37;;;;;;;3.11;69.59;97036.00;5052809;28;20248;-72
2023/03/01 11:08:56;;;;;;;24.90;17.63;;;;;;;3.24;69.13;97028.44;5055381;28;20201;-73
2023/03/01 11:11:23;;;;;;;26.87;18.17;;;;;;;3.31;68.37;97024.19;5054818;28;20235;-74
2023/03/01 11:14:16;;;;;;;25.60;18.03;;;;;;;3.41;68.43;97026.50;5053080;28;20189;-73
2023/03/01 11:16:45;;;;;;;29.63;17.70;;;;;;;3.28;68.74;97020.16;5052835;28;20178;-73
2023/03/01 11:19:10;;;;;;;24.90;18.73;;;;;;;3.24;67.86;97029.25;5052539;28;20198;-77
2023/03/01 11:21:41;;;;;;;23.30;18.70;;;;;;;3.33;67.91;97017.03;5053105;28;20261;-72
2023/03/01 11:24:11;;;;;;;23.47;19.03;;;;;;;3.43;67.96;97009.00;5061687;28;20205;-73
2023/03/01 11:26:41;;;;;;;24.73;18.70;;;;;;;3.53;67.89;97000.00;5053063;28;20513;-73